Time;durP1;ratioP1;P1;durP2;ratioP2;P2;SDS_P1;SDS_P2;PMS_P1;PMS_P2;Temp;Humidity;BMP_temperature;BMP_pressure;BME280_temperature;BME280_humidity;BME280_pressure;Samples;Min_cycle;Max_cycle;Signal;HPM_P1;HPM_P2
2021/09/18 00:01:21;;;;;;;64.43;45.90;;;;;;;;;;5013918;28;20022;-64
2021/09/18 00:03:47;;;;;;;64.65;44.53;;;;;;;;;;5031548;28;20453;-64
2021/09/18 00:06:13;;;;;;;68.88;46.72;;;;;;;;;;5013885;28;20060;-64
2021/09/18 00:08:39;;;;;;;60.40;45.38;;;;;;;;;;5013641;28;20056;-64
2021/09/18 00:11:05;;;;;;;68.55;47.75;;;;;;;;;;5031604;28;20029;-64
2021/09/18 00:13:32;;;;;;;70.72;49.15;;;;;;;;;;5031558;28;20041;-64
2021/09/18 00:15:58;;;;;;;74.90;50.95;;;;;;;;;;5013716;28;20032;-64
2021/09/18 00:18:24;;;;;;;74.22;52.45;;;;;;;;;;5031104;28;20226;-64
2021/09/18 00:20:50;;;;;;;73.90;50.58;;;;;;;;;;5013976;28;20095;-64
2021/09/18 00:23:16;;;;;;;71.20;52.08;;;;;;;;;;5031453;28;20023;-64
2021/09/18 00:25:42;;;;;;;68.78;48.10;;;;;;;;;;5033079;28;20168;-64
2021/09/18 00:28:08;;;;;;;65.55;48.67;;;;;;;;;;5035028;28;20039;-64
2021/09/18 00:30:34;;;;;;;65.78;45.55;;;;;;;;;;5035113;28;20108;-64
2021/09/18 00:33:02;;;;;;;66.15;46.47;;;;;;;;;;5035045;28;20384;-64
2021/09/18 00:35:28;;;;;;;64.90;44.45;;;;;;;;;;5035103;28;20053;-64
2021/09/18 00:37:54;;;;;;;62.08;43.20;;;;;;;;;;5034977;28;20106;-64
2021/09/18 00:40:19;;;;;;;62.50;42.95;;;;;;;;;;5016930;28;20025;-64
2021/09/18 00:42:45;;;;;;;57.75;43.00;;;;;;;;;;5034898;28;20378;-64
2021/09/18 00:45:12;;;;;;;60.85;43.15;;;;;;;;;;5034382;28;20030;-64
2021/09/18 00:47:37;;;;;;;59.10;42.78;;;;;;;;;;5034790;28;20080;-65
2021/09/18 00:50:04;;;;;;;66.25;44.78;;;;;;;;;;5016957;28;20022;-64
2021/09/18 00:52:30;;;;;;;63.33;44.30;;;;;;;;;;5016960;28;20025;-64
2021/09/18 00:54:56;;;;;;;60.53;41.85;;;;;;;;;;5017230;28;20025;-64
2021/09/18 00:57:23;;;;;;;57.95;38.42;;;;;;;;;;5034617;28;20393;-64
2021/09/18 00:59:49;;;;;;;53.50;39.00;;;;;;;;;;5034420;28;20036;-64
2021/09/18 01:02:15;;;;;;;59.97;39.67;;;;;;;;;;5034578;28;20033;-64
2021/09/18 01:04:41;;;;;;;57.70;40.92;;;;;;;;;;5017071;28;20051;-63
2021/09/18 01:07:07;;;;;;;57.75;38.50;;;;;;;;;;5034528;28;20033;-63
2021/09/18 01:09:34;;;;;;;52.33;37.75;;;;;;;;;;5016790;28;20022;-64
2021/09/18 01:12:00;;;;;;;52.03;37.60;;;;;;;;;;5034342;28;20425;-64
2021/09/18 01:14:26;;;;;;;51.70;37.30;;;;;;;;;;5016780;28;20037;-64
2021/09/18 01:16:52;;;;;;;53.45;37.78;;;;;;;;;;5034125;28;20040;-64
2021/09/18 01:19:18;;;;;;;46.60;35.35;;;;;;;;;;5034158;28;20021;-64
2021/09/18 01:21:48;;;;;;;51.47;36.25;;;;;;;;;;5016509;28;20026;-64
2021/09/18 01:24:15;;;;;;;48.30;34.70;;;;;;;;;;5034339;28;20021;-64
2021/09/18 01:26:41;;;;;;;46.45;33.95;;;;;;;;;;5034173;28;20120;-64
2021/09/18 01:29:08;;;;;;;44.70;31.08;;;;;;;;;;5033999;28;20054;-64
2021/09/18 01:31:44;;;;;;;42.70;31.80;;;;;;;;;;5034068;28;20021;-64
2021/09/18 01:34:10;;;;;;;43.40;31.98;;;;;;;;;;5016375;28;20028;-64
2021/09/18 01:36:37;;;;;;;44.55;32.60;;;;;;;;;;5033608;28;20028;-64
2021/09/18 01:39:10;;;;;;;41.50;29.95;;;;;;;;;;5033924;28;20481;-64
2021/09/18 01:41:36;;;;;;;40.95;30.00;;;;;;;;;;5016656;28;20454;-64
2021/09/18 01:44:03;;;;;;;39.83;29.90;;;;;;;;;;5033952;28;20048;-64
2021/09/18 01:46:29;;;;;;;44.67;30.65;;;;;;;;;;5034136;28;20025;-64
2021/09/18 01:48:55;;;;;;;43.55;30.92;;;;;;;;;;5015953;28;20531;-64
2021/09/18 01:51:21;;;;;;;42.83;29.98;;;;;;;;;;5033591;28;20394;-64
2021/09/18 01:53:47;;;;;;;43.75;29.50;;;;;;;;;;5033722;28;20358;-64
2021/09/18 01:56:13;;;;;;;44.83;31.73;;;;;;;;;;5033823;28;20031;-64
2021/09/18 01:58:39;;;;;;;41.10;29.42;;;;;;;;;;5015876;28;20013;-64
2021/09/18 02:01:05;;;;;;;45.40;31.30;;;;;;;;;;5033785;28;20029;-64
2021/09/18 02:03:32;;;;;;;44.25;31.13;;;;;;;;;;5033832;28;20032;-63
2021/09/18 02:05:58;;;;;;;46.22;31.35;;;;;;;;;;5033704;28;20032;-64
2021/09/18 02:08:24;;;;;;;43.60;30.80;;;;;;;;;;5033361;28;20029;-64
2021/09/18 02:10:51;;;;;;;45.97;31.48;;;;;;;;;;5015916;28;20026;-64
2021/09/18 02:13:17;;;;;;;44.20;30.27;;;;;;;;;;5033487;28;20022;-63
2021/09/18 02:15:43;;;;;;;39.33;28.25;;;;;;;;;;5033486;28;20075;-64
2021/09/18 02:18:09;;;;;;;42.10;29.00;;;;;;;;;;5015394;28;20237;-64
2021/09/18 02:20:36;;;;;;;40.15;28.67;;;;;;;;;;5033298;28;20037;-64
2021/09/18 02:23:03;;;;;;;43.25;30.50;;;;;;;;;;5033111;28;20068;-64
2021/09/18 02:25:29;;;;;;;41.10;26.90;;;;;;;;;;5033467;28;20056;-64
2021/09/18 02:27:55;;;;;;;38.58;26.73;;;;;;;;;;5033339;28;20028;-64
2021/09/18 02:30:24;;;;;;;40.53;27.55;;;;;;;;;;5015128;28;20117;-64
2021/09/18 02:32:50;;;;;;;38.95;27.45;;;;;;;;;;5015341;28;20428;-64
2021/09/18 02:35:17;;;;;;;38.00;26.15;;;;;;;;;;5015358;28;20116;-64
2021/09/18 02:37:44;;;;;;;39.00;25.33;;;;;;;;;;5015525;28;20030;-64
2021/09/18 02:40:12;;;;;;;38.55;25.70;;;;;;;;;;5015448;28;20072;-64
2021/09/18 02:42:39;;;;;;;33.97;23.83;;;;;;;;;;5033490;28;20022;-64
2021/09/18 02:45:06;;;;;;;35.20;22.90;;;;;;;;;;5033363;28;20039;-64
2021/09/18 02:47:31;;;;;;;33.15;22.88;;;;;;;;;;5032220;28;20478;-64
2021/09/18 02:49:58;;;;;;;31.15;22.05;;;;;;;;;;5032479;28;20022;-64
2021/09/18 02:52:24;;;;;;;32.33;22.25;;;;;;;;;;5014604;28;20358;-64
2021/09/18 02:54:50;;;;;;;32.83;21.35;;;;;;;;;;5032644;28;20028;-64
2021/09/18 02:57:16;;;;;;;29.90;21.58;;;;;;;;;;5032545;28;20534;-64
2021/09/18 02:59:42;;;;;;;30.52;21.10;;;;;;;;;;5014495;28;20029;-64
2021/09/18 03:02:08;;;;;;;30.80;21.00;;;;;;;;;;5032473;28;20047;-64
2021/09/18 03:04:34;;;;;;;32.20;21.58;;;;;;;;;;5032251;28;20491;-64
2021/09/18 03:07:00;;;;;;;33.78;20.45;;;;;;;;;;5032218;28;20033;-64
2021/09/18 03:09:26;;;;;;;30.33;20.67;;;;;;;;;;5014341;28;20029;-64
2021/09/18 03:11:52;;;;;;;27.77;18.50;;;;;;;;;;5014709;28;20041;-64
2021/09/18 03:14:18;;;;;;;31.35;19.92;;;;;;;;;;5032320;28;20021;-64
2021/09/18 03:16:44;;;;;;;28.63;19.27;;;;;;;;;;5015035;28;20048;-64
2021/09/18 03:19:10;;;;;;;30.75;21.30;;;;;;;;;;5032076;28;20068;-64
2021/09/18 03:21:36;;;;;;;29.23;19.75;;;;;;;;;;5014555;28;20032;-64
2021/09/18 03:24:02;;;;;;;30.48;19.13;;;;;;;;;;5032222;28;20029;-64
2021/09/18 03:26:28;;;;;;;26.92;18.77;;;;;;;;;;5014580;28;20408;-63
2021/09/18 03:28:54;;;;;;;27.80;17.52;;;;;;;;;;5031904;28;20044;-63
2021/09/18 03:31:20;;;;;;;27.13;17.75;;;;;;;;;;5014438;28;20047;-64
2021/09/18 03:33:46;;;;;;;26.95;17.45;;;;;;;;;;5031989;28;20668;-64
2021/09/18 03:36:12;;;;;;;25.63;16.48;;;;;;;;;;5014532;28;20021;-64
2021/09/18 03:38:38;;;;;;;24.45;16.48;;;;;;;;;;5014129;28;20473;-64
2021/09/18 03:41:04;;;;;;;25.13;16.65;;;;;;;;;;5032026;28;20026;-64
2021/09/18 03:43:30;;;;;;;28.02;17.30;;;;;;;;;;5014404;28;20022;-64
2021/09/18 03:45:56;;;;;;;25.35;15.27;;;;;;;;;;5032088;28;20101;-64
2021/09/18 03:48:22;;;;;;;27.10;16.50;;;;;;;;;;5013746;28;20033;-64
2021/09/18 03:50:48;;;;;;;26.23;16.85;;;;;;;;;;5014511;28;20079;-64
2021/09/18 03:53:14;;;;;;;26.42;15.82;;;;;;;;;;5014362;28;20033;-64
2021/09/18 03:55:40;;;;;;;26.63;15.60;;;;;;;;;;5031868;28;20087;-64
2021/09/18 03:58:06;;;;;;;28.15;16.77;;;;;;;;;;5014037;28;20029;-64
2021/09/18 04:00:32;;;;;;;26.92;16.27;;;;;;;;;;5017178;28;20036;-64
2021/09/18 04:02:58;;;;;;;27.75;16.90;;;;;;;;;;5035621;28;20428;-64
2021/09/18 04:05:24;;;;;;;25.23;17.08;;;;;;;;;;5035617;28;20037;-64
2021/09/18 04:07:50;;;;;;;27.42;17.60;;;;;;;;;;5017800;28;20477;-64
2021/09/18 04:10:16;;;;;;;28.85;17.13;;;;;;;;;;5035460;28;20032;-64
2021/09/18 04:12:42;;;;;;;25.33;16.10;;;;;;;;;;5035449;28;20366;-65
2021/09/18 04:15:08;;;;;;;25.10;16.10;;;;;;;;;;5035499;28;20032;-64
2021/09/18 04:17:34;;;;;;;25.33;16.63;;;;;;;;;;5035442;28;20108;-64
2021/09/18 04:20:00;;;;;;;24.63;15.27;;;;;;;;;;5030539;28;20116;-64
2021/09/18 04:22:26;;;;;;;25.58;15.93;;;;;;;;;;5017579;28;20033;-64
2021/09/18 04:24:52;;;;;;;22.88;14.48;;;;;;;;;;5035386;28;20022;-64
2021/09/18 04:27:18;;;;;;;24.70;15.55;;;;;;;;;;5035492;28;20026;-64
2021/09/18 04:29:44;;;;;;;23.50;13.90;;;;;;;;;;5035149;28;20404;-64
2021/09/18 04:32:10;;;;;;;23.40;13.13;;;;;;;;;;5017609;28;20752;-64
2021/09/18 04:34:36;;;;;;;22.80;13.38;;;;;;;;;;5017400;28;20393;-64
2021/09/18 04:37:02;;;;;;;24.45;13.45;;;;;;;;;;5017478;28;20079;-64
2021/09/18 04:39:28;;;;;;;25.45;13.27;;;;;;;;;;5034832;28;20104;-64
2021/09/18 04:41:54;;;;;;;22.88;14.15;;;;;;;;;;5034913;28;20113;-64
2021/09/18 04:44:20;;;;;;;25.35;13.80;;;;;;;;;;5034944;28;20109;-64
2021/09/18 04:46:46;;;;;;;23.00;12.27;;;;;;;;;;5017054;28;20026;-64
2021/09/18 04:49:12;;;;;;;22.65;13.43;;;;;;;;;;5034709;28;20053;-64
2021/09/18 04:51:38;;;;;;;22.92;14.60;;;;;;;;;;5017053;28;20030;-64
2021/09/18 04:54:04;;;;;;;24.35;14.82;;;;;;;;;;5034761;28;20029;-64
2021/09/18 04:56:30;;;;;;;23.60;13.68;;;;;;;;;;5034782;28;20025;-64
2021/09/18 04:58:56;;;;;;;23.23;13.75;;;;;;;;;;5038625;28;20096;-64
2021/09/18 05:01:22;;;;;;;23.75;14.02;;;;;;;;;;5054256;28;20522;-64
2021/09/18 05:03:48;;;;;;;22.50;13.93;;;;;;;;;;5054405;28;20017;-64
2021/09/18 05:06:14;;;;;;;23.65;14.55;;;;;;;;;;5054353;28;20405;-64
2021/09/18 05:08:40;;;;;;;24.30;14.77;;;;;;;;;;5036156;28;20017;-64
2021/09/18 05:11:06;;;;;;;24.33;15.02;;;;;;;;;;5035961;28;20074;-64
2021/09/18 05:13:32;;;;;;;23.98;14.50;;;;;;;;;;5054375;28;20473;-64
2021/09/18 05:15:58;;;;;;;20.92;12.43;;;;;;;;;;5054082;28;20032;-63
2021/09/18 05:18:24;;;;;;;23.45;12.10;;;;;;;;;;5036478;28;20104;-64
2021/09/18 05:20:50;;;;;;;25.63;13.45;;;;;;;;;;5054226;28;20025;-64
2021/09/18 05:23:16;;;;;;;26.73;15.80;;;;;;;;;;5035908;28;20033;-64
2021/09/18 05:25:42;;;;;;;21.80;12.80;;;;;;;;;;5054158;28;20027;-64
2021/09/18 05:28:08;;;;;;;23.70;12.88;;;;;;;;;;5053722;28;20613;-64
2021/09/18 05:30:34;;;;;;;24.27;14.20;;;;;;;;;;5036369;28;20040;-64
2021/09/18 05:33:00;;;;;;;23.30;14.45;;;;;;;;;;5036053;28;20485;-64
2021/09/18 05:35:26;;;;;;;21.30;12.23;;;;;;;;;;5053970;28;20104;-64
2021/09/18 05:37:52;;;;;;;21.10;10.65;;;;;;;;;;5053868;28;20037;-64
2021/09/18 05:40:18;;;;;;;21.05;10.98;;;;;;;;;;5053625;28;20045;-64
2021/09/18 05:42:46;;;;;;;21.48;10.73;;;;;;;;;;5053711;28;20393;-64
2021/09/18 05:45:12;;;;;;;18.50;9.52;;;;;;;;;;5053404;28;20033;-64
2021/09/18 05:47:38;;;;;;;18.20;9.85;;;;;;;;;;5052979;28;20021;-64
2021/09/18 05:50:04;;;;;;;18.70;9.68;;;;;;;;;;5053254;28;20025;-64
2021/09/18 05:52:32;;;;;;;19.80;9.90;;;;;;;;;;5054672;28;20029;-63
2021/09/18 05:54:58;;;;;;;21.58;10.25;;;;;;;;;;5053623;28;20096;-64
2021/09/18 05:57:24;;;;;;;20.95;9.93;;;;;;;;;;5053462;28;20138;-62
2021/09/18 05:59:50;;;;;;;20.58;10.38;;;;;;;;;;5028262;28;20030;-63
2021/09/18 06:02:16;;;;;;;21.20;10.43;;;;;;;;;;5033592;28;20136;-63
2021/09/18 06:04:42;;;;;;;19.13;10.68;;;;;;;;;;5033413;28;20037;-63
2021/09/18 06:07:08;;;;;;;19.27;10.68;;;;;;;;;;5033415;28;20429;-63
2021/09/18 06:09:34;;;;;;;19.02;11.15;;;;;;;;;;5032854;28;20037;-63
2021/09/18 06:12:00;;;;;;;19.73;10.77;;;;;;;;;;5015134;28;20029;-63
2021/09/18 06:14:25;;;;;;;21.83;11.85;;;;;;;;;;5033113;28;20022;-63
2021/09/18 06:16:51;;;;;;;21.20;12.15;;;;;;;;;;5033101;28;20034;-63
2021/09/18 06:19:19;;;;;;;21.15;11.68;;;;;;;;;;5032692;28;20057;-64
2021/09/18 06:21:46;;;;;;;19.45;11.30;;;;;;;;;;5032985;28;20088;-63
2021/09/18 06:24:13;;;;;;;21.05;11.10;;;;;;;;;;5033017;28;20543;-63
2021/09/18 06:26:39;;;;;;;23.58;13.10;;;;;;;;;;5032840;28;20366;-63
2021/09/18 06:29:05;;;;;;;22.33;11.93;;;;;;;;;;5032559;28;20100;-63
2021/09/18 06:31:31;;;;;;;20.95;11.45;;;;;;;;;;5015073;28;20536;-63
2021/09/18 06:33:57;;;;;;;21.73;11.27;;;;;;;;;;5039883;28;20020;-64
2021/09/18 06:36:23;;;;;;;20.38;11.50;;;;;;;;;;5034945;28;20477;-63
2021/09/18 06:38:50;;;;;;;21.30;12.15;;;;;;;;;;5034434;28;20032;-63
2021/09/18 06:41:15;;;;;;;21.05;10.27;;;;;;;;;;5052414;28;20112;-63
2021/09/18 06:43:42;;;;;;;18.85;10.35;;;;;;;;;;5052434;28;20098;-63
2021/09/18 06:46:07;;;;;;;19.92;10.35;;;;;;;;;;5034417;28;20052;-62
2021/09/18 06:48:33;;;;;;;19.63;11.15;;;;;;;;;;5052244;28;20480;-63
2021/09/18 06:50:59;;;;;;;18.55;10.02;;;;;;;;;;5052421;28;20088;-63
2021/09/18 06:53:25;;;;;;;20.85;9.82;;;;;;;;;;5034359;28;20404;-63
2021/09/18 06:55:52;;;;;;;21.63;10.30;;;;;;;;;;5052309;28;20032;-63
2021/09/18 06:58:18;;;;;;;24.35;10.18;;;;;;;;;;5034306;28;20024;-64
2021/09/18 07:00:44;;;;;;;20.77;10.77;;;;;;;;;;5040015;28;20104;-64
2021/09/18 07:03:10;;;;;;;20.67;10.02;;;;;;;;;;5032260;28;20026;-63
2021/09/18 07:05:36;;;;;;;19.02;9.73;;;;;;;;;;5032539;28;20092;-64
2021/09/18 07:08:02;;;;;;;18.98;10.00;;;;;;;;;;5032094;28;20033;-64
2021/09/18 07:10:28;;;;;;;16.65;9.25;;;;;;;;;;5031955;28;20018;-64
2021/09/18 07:12:54;;;;;;;19.52;9.45;;;;;;;;;;5031989;28;20107;-63
2021/09/18 07:15:20;;;;;;;20.15;9.60;;;;;;;;;;5032063;28;20095;-63
2021/09/18 07:17:46;;;;;;;18.73;9.50;;;;;;;;;;5032123;28;20025;-64
2021/09/18 07:20:13;;;;;;;18.98;9.48;;;;;;;;;;5014039;28;20037;-64
2021/09/18 07:22:39;;;;;;;16.48;8.43;;;;;;;;;;5031927;28;20504;-64
2021/09/18 07:25:06;;;;;;;16.15;7.45;;;;;;;;;;5032099;28;20032;-63
2021/09/18 07:27:32;;;;;;;16.95;7.95;;;;;;;;;;5031700;28;20100;-63
2021/09/18 07:29:58;;;;;;;17.70;8.52;;;;;;;;;;5031673;28;20029;-63
2021/09/18 07:32:24;;;;;;;19.13;8.00;;;;;;;;;;5031764;28;20021;-63
2021/09/18 07:34:50;;;;;;;17.35;8.68;;;;;;;;;;5031303;28;20433;-63
2021/09/18 07:37:16;;;;;;;18.25;8.95;;;;;;;;;;5014486;28;20370;-62
2021/09/18 07:39:43;;;;;;;19.70;8.88;;;;;;;;;;5031698;28;20036;-62
2021/09/18 07:42:09;;;;;;;18.60;8.48;;;;;;;;;;5031492;28;20488;-58
2021/09/18 07:44:35;;;;;;;19.00;8.95;;;;;;;;;;5014171;28;20037;-58
2021/09/18 07:47:01;;;;;;;20.33;8.80;;;;;;;;;;5031791;28;20025;-65
2021/09/18 07:49:27;;;;;;;16.70;8.32;;;;;;;;;;5031114;28;20029;-65
2021/09/18 07:51:55;;;;;;;17.65;8.98;;;;;;;;;;5012955;28;20034;-67
2021/09/18 07:54:21;;;;;;;16.95;7.93;;;;;;;;;;5031530;28;20546;-66
2021/09/18 07:56:47;;;;;;;17.30;9.00;;;;;;;;;;5014125;28;20036;-66
2021/09/18 07:59:13;;;;;;;16.10;7.78;;;;;;;;;;5013623;28;20040;-66
2021/09/18 08:01:39;;;;;;;18.75;8.32;;;;;;;;;;5013636;28;20179;-66
2021/09/18 08:04:05;;;;;;;18.05;8.73;;;;;;;;;;5013705;28;20029;-66
2021/09/18 08:06:33;;;;;;;19.60;7.78;;;;;;;;;;5013463;28;20048;-67
2021/09/18 08:08:59;;;;;;;16.33;7.75;;;;;;;;;;5031227;28;20096;-65
2021/09/18 08:11:25;;;;;;;16.13;7.50;;;;;;;;;;5013734;28;20032;-65
2021/09/18 08:13:52;;;;;;;16.48;7.47;;;;;;;;;;5031475;28;20033;-66
2021/09/18 08:16:18;;;;;;;14.32;6.93;;;;;;;;;;5031483;28;20025;-67
2021/09/18 08:18:44;;;;;;;15.30;7.30;;;;;;;;;;5013475;28;20109;-65
2021/09/18 08:21:11;;;;;;;16.17;7.15;;;;;;;;;;5031136;28;20040;-65
2021/09/18 08:23:37;;;;;;;16.08;8.10;;;;;;;;;;5031375;28;20100;-66
2021/09/18 08:26:03;;;;;;;15.00;7.47;;;;;;;;;;5031042;28;20026;-66
2021/09/18 08:28:29;;;;;;;15.20;7.60;;;;;;;;;;5013302;28;20500;-66
2021/09/18 08:30:55;;;;;;;17.80;7.40;;;;;;;;;;5013527;28;20025;-66
2021/09/18 08:33:21;;;;;;;15.65;6.50;;;;;;;;;;5031423;28;20021;-66
2021/09/18 08:35:47;;;;;;;15.95;6.70;;;;;;;;;;5031283;28;20036;-64
2021/09/18 08:38:13;;;;;;;16.90;6.82;;;;;;;;;;5030969;28;20025;-67
2021/09/18 08:40:39;;;;;;;18.83;7.28;;;;;;;;;;5030835;28;20029;-64
2021/09/18 08:43:06;;;;;;;14.45;6.75;;;;;;;;;;5013274;28;20440;-65
2021/09/18 08:45:33;;;;;;;15.98;6.50;;;;;;;;;;5013478;28;20469;-64
2021/09/18 08:48:02;;;;;;;13.88;6.70;;;;;;;;;;5016679;28;20033;-64
2021/09/18 08:50:28;;;;;;;14.52;6.57;;;;;;;;;;5016678;28;20091;-66
2021/09/18 08:52:55;;;;;;;16.20;7.22;;;;;;;;;;5016465;28;20091;-64
2021/09/18 08:55:21;;;;;;;23.00;8.57;;;;;;;;;;5034855;28;20381;-64
2021/09/18 08:57:47;;;;;;;15.15;6.90;;;;;;;;;;5016830;28;20026;-64
2021/09/18 09:00:32;;;;;;;14.35;7.28;;;;;;;;;;5034019;28;20037;-64
2021/09/18 09:02:59;;;;;;;15.05;7.50;;;;;;;;;;5034349;28;20489;-64
2021/09/18 09:05:33;;;;;;;15.50;7.07;;;;;;;;;;5016624;28;20037;-64
2021/09/18 09:08:09;;;;;;;18.77;7.93;;;;;;;;;;5034229;28;20075;-64
2021/09/18 09:10:36;;;;;;;15.68;7.82;;;;;;;;;;5034427;28;20422;-65
2021/09/18 09:13:09;;;;;;;15.63;7.50;;;;;;;;;;5016464;28;20405;-65
2021/09/18 09:15:35;;;;;;;15.68;7.30;;;;;;;;;;5034139;28;20473;-65
2021/09/18 09:18:17;;;;;;;16.05;7.55;;;;;;;;;;5034396;28;20105;-66
2021/09/18 09:20:44;;;;;;;14.35;7.20;;;;;;;;;;5016438;28;20397;-66
2021/09/18 09:23:29;;;;;;;16.90;7.50;;;;;;;;;;5033861;28;20021;-66
2021/09/18 09:25:55;;;;;;;14.63;7.15;;;;;;;;;;5034403;28;20404;-66
2021/09/18 09:28:23;;;;;;;14.55;7.68;;;;;;;;;;5033634;28;20029;-66
2021/09/18 09:30:49;;;;;;;15.13;7.82;;;;;;;;;;5033951;28;20116;-65
2021/09/18 09:33:15;;;;;;;16.33;7.88;;;;;;;;;;5033827;28;20033;-64
2021/09/18 09:35:42;;;;;;;17.33;8.10;;;;;;;;;;5016094;28;20369;-65
2021/09/18 09:38:08;;;;;;;15.75;7.90;;;;;;;;;;5033754;28;20044;-65
2021/09/18 09:40:48;;;;;;;17.88;8.55;;;;;;;;;;5033813;28;20033;-64
2021/09/18 09:43:15;;;;;;;16.85;9.63;;;;;;;;;;5016099;28;20049;-64
2021/09/18 09:45:41;;;;;;;16.52;9.52;;;;;;;;;;5015714;28;20106;-64
2021/09/18 09:48:07;;;;;;;15.82;8.65;;;;;;;;;;5033238;28;20104;-64
2021/09/18 09:50:34;;;;;;;23.75;12.52;;;;;;;;;;5033017;28;20100;-64
2021/09/18 09:53:01;;;;;;;17.30;10.40;;;;;;;;;;5033248;28;20044;-64
2021/09/18 09:55:27;;;;;;;15.50;9.68;;;;;;;;;;5033356;28;20373;-64
2021/09/18 09:58:01;;;;;;;15.52;9.10;;;;;;;;;;5032837;28;20043;-64
2021/09/18 10:00:41;;;;;;;14.38;8.82;;;;;;;;;;5033095;28;20025;-64
2021/09/18 10:03:08;;;;;;;15.30;9.50;;;;;;;;;;5033183;28;20401;-64
2021/09/18 10:05:34;;;;;;;17.80;10.35;;;;;;;;;;5015173;28;20022;-64
2021/09/18 10:08:00;;;;;;;19.40;11.02;;;;;;;;;;5033119;28;20108;-65
2021/09/18 10:10:27;;;;;;;16.48;10.40;;;;;;;;;;5032875;28;20079;-65
2021/09/18 10:12:55;;;;;;;16.70;10.18;;;;;;;;;;5032982;28;20112;-65
2021/09/18 10:15:24;;;;;;;16.02;10.02;;;;;;;;;;5033080;28;20021;-65
2021/09/18 10:17:50;;;;;;;18.13;11.10;;;;;;;;;;5033123;28;20108;-65
2021/09/18 10:25:33;;;;;;;17.77;10.57;;;;;;;;;;5032948;28;20110;-65
2021/09/18 10:28:01;;;;;;;20.40;11.43;;;;;;;;;;5015162;28;20029;-65
2021/09/18 10:30:54;;;;;;;17.40;10.85;;;;;;;;;;5032487;28;20025;-65
2021/09/18 10:33:39;;;;;;;16.60;10.10;;;;;;;;;;5028826;28;20068;-65
2021/09/18 10:36:09;;;;;;;16.08;10.90;;;;;;;;;;5032752;28;20029;-65
2021/09/18 10:38:36;;;;;;;17.67;11.10;;;;;;;;;;5032456;28;20075;-65
2021/09/18 10:41:07;;;;;;;17.30;11.20;;;;;;;;;;5032132;28;20485;-65
2021/09/18 10:43:41;;;;;;;18.42;10.90;;;;;;;;;;5032470;28;20397;-65
2021/09/18 10:46:08;;;;;;;16.23;11.38;;;;;;;;;;5032287;28;20080;-65
2021/09/18 10:48:39;;;;;;;17.23;11.30;;;;;;;;;;5031514;28;20033;-65
2021/09/18 10:51:05;;;;;;;16.65;10.82;;;;;;;;;;5031828;28;20052;-64
2021/09/18 10:53:51;;;;;;;16.92;10.82;;;;;;;;;;5013911;28;20056;-64
2021/09/18 10:56:17;;;;;;;17.25;10.80;;;;;;;;;;5014376;28;20120;-65
2021/09/18 10:59:02;;;;;;;18.85;10.55;;;;;;;;;;5031907;28;20029;-65
2021/09/18 11:01:28;;;;;;;16.58;11.45;;;;;;;;;;5014199;28;20035;-65
2021/09/18 11:03:58;;;;;;;16.42;10.95;;;;;;;;;;5014581;28;20041;-66
2021/09/18 11:06:38;;;;;;;17.40;11.40;;;;;;;;;;5014320;28;20095;-65
2021/09/18 11:09:05;;;;;;;19.20;12.15;;;;;;;;;;5030094;28;20160;-65
2021/09/18 11:11:31;;;;;;;17.63;11.80;;;;;;;;;;5013970;28;20112;-65
2021/09/18 11:13:57;;;;;;;17.27;12.40;;;;;;;;;;5014274;28;20457;-65
2021/09/18 11:16:24;;;;;;;19.30;12.75;;;;;;;;;;5031513;28;20033;-66
2021/09/18 11:19:11;;;;;;;16.92;12.43;;;;;;;;;;5014054;28;20022;-66
2021/09/18 11:21:40;;;;;;;20.65;12.40;;;;;;;;;;5031342;28;20022;-65
2021/09/18 11:24:15;;;;;;;16.98;12.55;;;;;;;;;;5031267;28;20033;-66
2021/09/18 11:26:45;;;;;;;16.55;12.77;;;;;;;;;;5031264;28;20053;-65
2021/09/18 11:29:13;;;;;;;16.35;12.43;;;;;;;;;;5031172;28;20128;-66
2021/09/18 11:31:40;;;;;;;16.67;12.38;;;;;;;;;;5013482;28;20022;-66
2021/09/18 11:34:06;;;;;;;16.80;12.40;;;;;;;;;;5013545;28;20393;-66
2021/09/18 11:36:45;;;;;;;16.27;12.60;;;;;;;;;;5031808;28;20018;-66
2021/09/18 11:39:11;;;;;;;17.80;12.93;;;;;;;;;;5031495;28;20032;-65
2021/09/18 11:41:37;;;;;;;16.98;12.30;;;;;;;;;;5013953;28;20021;-65
2021/09/18 11:44:10;;;;;;;17.70;12.75;;;;;;;;;;5031431;28;20024;-65
2021/09/18 11:46:36;;;;;;;17.55;12.65;;;;;;;;;;5031384;28;20100;-65
2021/09/18 11:49:03;;;;;;;16.83;11.90;;;;;;;;;;5031452;28;20025;-65
2021/09/18 11:54:00;;;;;;;17.60;12.73;;;;;;;;;;5066648;22;20049;-66
2021/09/18 11:56:26;;;;;;;17.05;12.40;;;;;;;;;;5033287;28;20441;-64
2021/09/18 11:58:52;;;;;;;16.98;12.10;;;;;;;;;;5050931;28;20029;-64
2021/09/18 12:01:18;;;;;;;16.63;12.07;;;;;;;;;;5033050;28;20083;-64
2021/09/18 12:03:44;;;;;;;16.00;12.23;;;;;;;;;;5032159;28;20033;-64
2021/09/18 12:06:14;;;;;;;18.30;12.95;;;;;;;;;;5013543;28;20026;-64
2021/09/18 12:08:41;;;;;;;16.13;12.50;;;;;;;;;;5030639;28;20036;-66
2021/09/18 12:11:12;;;;;;;16.13;11.82;;;;;;;;;;5013308;28;20483;-64
2021/09/18 12:13:42;;;;;;;17.67;12.23;;;;;;;;;;4668978;28;10000083;-64
2021/09/18 12:16:09;;;;;;;15.68;11.95;;;;;;;;;;5007609;28;20466;-64
2021/09/18 12:18:35;;;;;;;16.30;12.35;;;;;;;;;;5007635;28;20367;-65
2021/09/18 12:21:12;;;;;;;15.82;11.80;;;;;;;;;;5010792;28;20060;-67
2021/09/18 12:23:46;;;;;;;15.55;11.88;;;;;;;;;;5012605;28;20030;-64
2021/09/18 12:26:12;;;;;;;17.23;12.52;;;;;;;;;;5012329;28;20106;-64
2021/09/18 12:28:39;;;;;;;16.15;12.05;;;;;;;;;;5011725;28;20193;-65
2021/09/18 12:31:14;;;;;;;16.23;12.30;;;;;;;;;;5012148;28;20402;-63
2021/09/18 12:33:40;;;;;;;15.80;11.70;;;;;;;;;;5011721;28;20105;-65
2021/09/18 12:36:11;;;;;;;16.10;11.23;;;;;;;;;;5011184;28;20057;-64
2021/09/18 12:38:38;;;;;;;15.93;11.35;;;;;;;;;;5011869;28;20025;-65
2021/09/18 12:41:05;;;;;;;15.55;11.25;;;;;;;;;;5011201;28;20077;-64
2021/09/18 12:43:32;;;;;;;15.15;10.90;;;;;;;;;;5011295;28;20060;-64
2021/09/18 12:46:04;;;;;;;16.63;11.30;;;;;;;;;;5009089;28;20457;-64
2021/09/18 12:48:30;;;;;;;17.20;11.18;;;;;;;;;;5008879;28;20026;-64
2021/09/18 12:50:56;;;;;;;16.08;10.93;;;;;;;;;;5010712;28;20037;-65
2021/09/18 12:53:23;;;;;;;16.08;11.70;;;;;;;;;;5008553;28;20509;-64
2021/09/18 12:56:08;;;;;;;15.90;11.55;;;;;;;;;;5009988;28;20076;-65
2021/09/18 12:58:34;;;;;;;17.67;11.70;;;;;;;;;;5009092;28;20046;-64
2021/09/18 13:01:01;;;;;;;15.93;11.50;;;;;;;;;;5019907;28;20331;-65
2021/09/18 13:03:27;;;;;;;15.43;11.60;;;;;;;;;;5010622;28;20113;-65
2021/09/18 13:06:12;;;;;;;15.38;11.85;;;;;;;;;;5011043;28;20074;-65
2021/09/18 13:08:46;;;;;;;15.70;11.52;;;;;;;;;;5009566;28;20128;-65
2021/09/18 13:11:14;;;;;;;15.60;11.88;;;;;;;;;;5010474;28;20371;-65
2021/09/18 13:13:41;;;;;;;15.80;12.27;;;;;;;;;;5024945;28;20041;-66
2021/09/18 13:16:07;;;;;;;17.02;11.80;;;;;;;;;;5010767;28;20022;-64
2021/09/18 13:18:33;;;;;;;16.17;11.90;;;;;;;;;;5009648;28;20030;-65
2021/09/18 13:20:59;;;;;;;15.68;12.40;;;;;;;;;;5010539;28;20083;-65
2021/09/18 13:23:25;;;;;;;16.95;12.15;;;;;;;;;;5010426;28;20470;-66
2021/09/18 13:25:51;;;;;;;16.15;11.80;;;;;;;;;;5010566;28;20670;-64
2021/09/18 13:28:17;;;;;;;15.95;12.18;;;;;;;;;;5012797;28;20084;-65
2021/09/18 13:30:43;;;;;;;16.48;12.30;;;;;;;;;;5028529;28;20425;-66
2021/09/18 13:33:09;;;;;;;15.63;12.50;;;;;;;;;;5012310;28;20022;-67
2021/09/18 13:35:35;;;;;;;15.40;12.00;;;;;;;;;;5012911;28;20100;-66
2021/09/18 13:38:01;;;;;;;15.27;12.20;;;;;;;;;;5012605;28;20030;-66
2021/09/18 13:40:27;;;;;;;15.85;12.80;;;;;;;;;;5012660;28;20026;-66
2021/09/18 13:42:53;;;;;;;16.00;12.50;;;;;;;;;;5012704;28;20176;-66
2021/09/18 13:45:19;;;;;;;17.05;12.85;;;;;;;;;;5012929;28;20645;-65
2021/09/18 13:47:45;;;;;;;15.85;12.20;;;;;;;;;;5034814;28;20036;-65
2021/09/18 13:50:11;;;;;;;15.48;12.02;;;;;;;;;;5051954;28;20480;-65
2021/09/18 13:52:37;;;;;;;15.20;11.85;;;;;;;;;;5051949;28;20544;-66
2021/09/18 13:55:03;;;;;;;16.33;12.40;;;;;;;;;;5034184;28;20051;-65
2021/09/18 13:57:29;;;;;;;16.25;12.50;;;;;;;;;;5052177;28;20021;-65
2021/09/18 13:59:55;;;;;;;16.35;12.38;;;;;;;;;;5033639;28;20021;-65
2021/09/18 14:02:21;;;;;;;16.23;12.20;;;;;;;;;;5033932;28;20033;-66
2021/09/18 14:04:47;;;;;;;17.02;13.20;;;;;;;;;;5051917;28;20059;-65
2021/09/18 14:07:13;;;;;;;16.05;11.70;;;;;;;;;;5051561;28;20025;-66
2021/09/18 14:09:39;;;;;;;15.77;12.10;;;;;;;;;;5051575;28;20380;-65
2021/09/18 14:12:06;;;;;;;16.95;12.40;;;;;;;;;;5034126;28;20021;-64
2021/09/18 14:14:32;;;;;;;16.10;12.35;;;;;;;;;;5034450;28;20021;-65
2021/09/18 14:16:58;;;;;;;15.50;12.20;;;;;;;;;;5051787;28;20017;-64
2021/09/18 14:19:24;;;;;;;17.88;12.30;;;;;;;;;;5051738;28;20434;-65
2021/09/18 14:21:50;;;;;;;16.17;11.63;;;;;;;;;;5033965;28;20021;-65
2021/09/18 14:24:16;;;;;;;16.33;11.95;;;;;;;;;;5033942;28;20027;-64
2021/09/18 14:26:42;;;;;;;15.35;11.40;;;;;;;;;;5033390;28;20059;-64